Portada
METAR-TAF:

METAR-TAF

Aeroports :

Udaipur, Índia

latitud: 24-37-04N, longitud: 73-53-46E, altitud: 513 m

Observació

L'informe es va fer fa 1 hora i 8 minuts, a les 11:00 UTC
Vent 6 kt del Oest/Sud-Oest
Temperatura 33°C
Humitat 41%
Pressió 1008 hPa
Visibilitat: 6000 m
Escasses núvols a una alçada de 3000 ft
Núvols disperses a una alçada de 3500 ft

METAR: VAUD 021100Z 25006KT 6000 FEW030 SCT035 33/18 Q1008 NOSIG

Hora: 17:38 (12:08 UTC)

Pronòstic

L'informe es va fer fa 4 hores i 8 minuts, a les 08:00 UTC
Pronòstic vàlid del 02 a les 09 UTC al 02 a les 18 UTC
Vent 5 kt del Oest
Visibilitat: 6000 m
Núvols disperses a una alçada de 3000 ft
Evolucionant progressivament
l' 02 a les 13 UTC al 02 a les 15 UTC
Vent 5 kt del Oest
Visibilitat: 4000 m
Escasses núvols a una alçada de 3000 ft
calitja

TAF: VAUD 020800Z 0209/0218 27005KT 6000 SCT030 BECMG 0213/0215 27005KT 4000 HZ FEW030

Observacions i pronòstics meteorològics de més de 4000 aeroports (METAR i TAF).

Les estacions disponibles són els punts grocs i vermells al mapa.

Posi el ratolí al punt desitjat per veure el nom de l'estació.

Feu clic per veure les observacions i els pronòstics meteorològics.

Per canviar el mapa: feu clic els botons verds amb una creu de color negre per apropar; al botó verd amb un guió per allunyar la imatge; o en les fletxes verdes per a mapes adjacents.


METAR-TAF: